DW6576 Weather Reports


Display with metric or nautical units.
time (UTC)temp
F
wind
direction
speed
MPH
gust
MPH
rain 1hr
in
rain 24hr
in
rain mn
in
humidity
%
barometer
mb
20180423205104 82 290 1.0 5.0 0.00 0.00 0.00 11 1008.4
20180423203601 82 9 0.0 5.0 0.00 0.00 0.00 10 1008.6
20180423202102 82 333 2.0 7.0 0.00 0.00 0.00 9 1008.7
20180423200600 83 295 0.0 5.0 0.00 0.00 0.00 12 1009.0
20180423195055 82 252 0.0 7.0 0.00 0.00 0.00 12 1009.3
20180423193551 81 248 0.0 3.0 0.00 0.00 0.00 11 1009.4
20180423192051 80 167 1.0 4.0 0.00 0.00 0.00 12 1009.8
20180423190547 80 258 0.0 3.0 0.00 0.00 0.00 14 1010.1
20180423185043 79 252 0.0 2.0 0.00 0.00 0.00 14 1010.3
20180423183540 78 256 0.0 3.0 0.00 0.00 0.00 15 1010.6
20180423182038 77 66 0.0 2.0 0.00 0.00 0.00 17 1010.9
20180423180538 77 300 0.0 2.0 0.00 0.00 0.00 19 1011.2
20180423175034 74 218 0.0 6.0 0.00 0.00 0.00 18 1011.5
20180423173533 73 281 0.0 2.0 0.00 0.00 0.00 19 1011.9
20180423172030 71 288 2.0 7.0 0.00 0.00 0.00 21 1012.2
20180423170524 70 301 0.0 6.0 0.00 0.00 0.00 23 1012.3
20180423165023 69 297 0.0 5.0 0.00 0.00 0.00 24 1012.5
20180423163517 68 331 0.0 4.0 0.00 0.00 0.00 25 1012.7
20180423162011 66 282 0.0 4.0 0.00 0.00 0.00 27 1012.7
20180423160511 64 261 0.0 3.0 0.00 0.00 0.00 30 1012.8
20180423155006 62 226 0.0 3.0 0.00 0.00 0.00 31 1012.8
20180423153500 61 288 0.0 3.0 0.00 0.00 0.00 32 1012.9
20180423151957 60 214 0.0 5.0 0.00 0.00 0.00 32 1013.1
20180423150455 59 234 1.0 3.0 0.00 0.00 0.00 33 1013.0
20180423144953 57 79 0.0 1.0 0.00 0.00 0.00 39 1012.8
20180423143451 54 86 0.0 1.0 0.00 0.00 0.00 41 1012.8
20180423141950 52 152 0.0 0.0 0.00 0.00 0.00 47 1012.6
20180423140452 50 131 0.0 1.0 0.00 0.00 0.00 48 1012.7
20180423134949 49 163 0.0 1.0 0.00 0.00 0.00 49 1012.6
20180423133450 48 134 0.0 2.0 0.00 0.00 0.00 50 1012.7
20180423131948 48 190 0.0 2.0 0.00 0.00 0.00 51 1012.8
20180423130449 48 139 0.0 4.0 0.00 0.00 0.00 51 1012.7
20180423124944 48 141 0.0 2.0 0.00 0.00 0.00 51 1012.6
20180423123443 48 134 0.0 3.0 0.00 0.00 0.00 51 1012.3
20180423121937 49 191 0.0 4.0 0.00 0.00 0.00 50 1012.1
20180423120437 50 212 0.0 5.0 0.00 0.00 0.00 50 1011.9
20180423114932 50 215 0.0 3.0 0.00 0.00 0.00 50 1011.9
20180423113430 50 100 0.0 5.0 0.00 0.00 0.00 49 1011.7
20180423111930 51 235 0.0 2.0 0.00 0.00 0.00 49 1011.7
20180423110430 51 210 0.0 5.0 0.00 0.00 0.00 48 1011.7
20180423104928 51 165 0.0 4.0 0.00 0.00 0.00 48 1011.8
20180423103423 51 278 0.0 4.0 0.00 0.00 0.00 47 1011.6
20180423101921 52 207 0.0 4.0 0.00 0.00 0.00 46 1011.5
20180423100420 52 126 1.0 6.0 0.00 0.00 0.00 45 1011.6
20180423094916 52 204 0.0 4.0 0.00 0.00 0.00 45 1011.5
20180423093419 52 215 0.0 4.0 0.00 0.00 0.00 45 1011.4
20180423091914 52 126 0.0 5.0 0.00 0.00 0.00 45 1011.4
20180423090414 52 184 1.0 6.0 0.00 0.00 0.00 44 1011.3
20180423084913 53 134 1.0 6.0 0.00 0.00 0.00 43 1011.2
20180423083411 53 141 1.0 4.0 0.00 0.00 0.00 43 1011.4
20180423081906 54 229 1.0 7.0 0.00 0.00 0.00 41 1011.4
20180423080407 54 294 0.0 5.0 0.00 0.00 0.00 40 1011.4
20180423074903 54 65 0.0 8.0 0.00 0.00 0.00 39 1011.4
20180423073402 55 276 0.0 5.0 0.00 0.00 0.00 38 1011.6
20180423071856 55 271 1.0 8.0 0.00 0.00 0.00 37 1011.3
20180423070353 56 298 0.0 1.0 0.00 0.00 0.00 32 1011.1
20180423064850 57 158 0.0 1.0 0.00 0.00 0.00 30 1011.1
20180423063348 58 116 0.0 2.0 0.00 0.00 0.00 30 1011.0
20180423061849 58 205 0.0 1.0 0.00 0.00 0.00 29 1011.1
20180423060346 58 126 0.0 2.0 0.00 0.00 0.00 30 1011.0
20180423054841 58 333 0.0 1.0 0.00 0.00 0.00 30 1010.8
20180423053343 58 257 0.0 1.0 0.00 0.00 0.00 29 1010.9
20180423051842 59 290 0.0 1.0 0.00 0.00 0.00 29 1011.0
20180423050340 59 300 0.0 1.0 0.00 0.00 0.00 29 1011.0
20180423044839 59 295 0.0 1.0 0.00 0.00 0.00 29 1011.0
20180423043339 59 203 0.0 2.0 0.00 0.00 0.00 28 1011.0
20180423041842 59 250 0.0 1.0 0.00 0.00 0.00 28 1010.9
20180423040340 58 109 0.0 0.0 0.00 0.00 0.00 28 1010.8
20180423034838 58 115 0.0 1.0 0.00 0.00 0.00 29 1010.7
20180423033337 58 108 0.0 0.0 0.00 0.00 0.00 29 1010.7
20180423031837 59 354 0.0 0.0 0.00 0.00 0.00 28 1010.5
20180423030338 59 285 0.0 0.0 0.00 0.00 0.00 28 1010.2
20180423024836 60 285 0.0 1.0 0.00 0.00 0.00 28 1010.1
20180423023336 62 255 0.0 0.0 0.00 0.00 0.00 26 1009.8
20180423021832 63 255 0.0 1.0 0.00 0.00 0.00 25 1009.6
20180423020333 65 235 0.0 1.0 0.00 0.00 0.00 24 1009.2
20180423014832 66 288 0.0 3.0 0.00 0.00 0.00 23 1009.0
20180423013332 68 243 0.0 2.0 0.00 0.00 0.00 21 1008.9
20180423011831 69 250 0.0 5.0 0.00 0.00 0.00 20 1008.8
20180423010330 71 293 0.0 4.0 0.00 0.00 0.00 17 1008.8
20180423004831 75 281 2.0 6.0 0.00 0.00 0.00 14 1008.8
20180423003328 77 249 0.0 3.0 0.00 0.00 0.00 12 1008.8
20180423001826 77 255 0.0 5.0 0.00 0.00 0.00 13 1008.9
20180423000324 78 232 0.0 3.0 0.00 0.00 0.00 12 1009.0
20180422234823 76 267 0.0 7.0 0.00 0.00 0.00 12 1009.2
20180422233320 78 297 0.0 3.0 0.00 0.00 0.00 11 1009.2
20180422231818 79 301 1.0 5.0 0.00 0.00 0.00 10 1009.3
20180422230317 80 280 0.0 1.0 0.00 0.00 0.00 7 1009.4
20180422224813 79 295 0.0 4.0 0.00 0.00 0.00 9 1009.5
20180422223311 80 115 0.0 2.0 0.00 0.00 0.00 9 1009.6
20180422221808 78 297 1.0 3.0 0.00 0.00 0.00 11 1009.8
20180422220307 78 304 0.0 3.0 0.00 0.00 0.00 12 1010.0
20180422214802 77 350 0.0 3.0 0.00 0.00 0.00 13 1010.3
20180422213300 76 142 2.0 6.0 0.00 0.00 0.00 14 1010.8
20180422211755 74 307 1.0 7.0 0.00 0.00 0.00 16 1011.2
20180422210254 76 19 2.0 6.0 0.00 0.00 0.00 14 1011.5